Time;durP1;ratioP1;P1;durP2;ratioP2;P2;SDS_P1;SDS_P2;PMS_P1;PMS_P2;Temp;Humidity;BMP_temperature;BMP_pressure;BME280_temperature;BME280_humidity;BME280_pressure;Samples;Min_cycle;Max_cycle;Signal;HPM_P1;HPM_P2
2022/04/30 00:02:10;;;;;;;;;14.75;13.00;;;;;10.41;58.46;101815.53;5077016;28;45613;-75
2022/04/30 00:04:43;;;;;;;;;21.00;15.50;;;;;10.30;58.90;101817.28;5075509;28;45615;-74
2022/04/30 00:07:12;;;;;;;;;12.75;9.75;;;;;10.31;58.31;101816.41;5070698;28;45453;-77
2022/04/30 00:09:37;;;;;;;;;21.50;15.50;;;;;10.31;58.71;101811.13;5055319;28;45421;-76
2022/04/30 00:12:04;;;;;;;;;15.50;12.00;;;;;10.30;58.80;101809.34;5056225;28;45441;-76
2022/04/30 00:14:29;;;;;;;;;13.25;10.75;;;;;10.29;58.83;101812.88;5056150;28;45844;-76
2022/04/30 00:16:55;;;;;;;;;20.50;15.75;;;;;10.27;58.89;101814.63;5071594;28;45348;-76
2022/04/30 00:19:21;;;;;;;;;17.25;10.00;;;;;10.21;59.31;101809.34;5067260;27;46098;-75
2022/04/30 00:21:48;;;;;;;;;21.75;14.25;;;;;10.07;58.96;101806.69;5053835;28;45362;-76
2022/04/30 00:24:13;;;;;;;;;17.75;13.50;;;;;10.03;60.00;101811.06;5055658;28;45284;-76
2022/04/30 00:26:39;;;;;;;;;18.50;15.75;;;;;10.05;59.79;101813.72;5055010;28;45292;-78
2022/04/30 00:29:04;;;;;;;;;25.50;19.75;;;;;9.96;60.47;101825.16;5056115;28;46109;-77
2022/04/30 00:31:30;;;;;;;;;18.25;16.50;;;;;9.85;60.87;101826.88;5054954;28;45509;-76
2022/04/30 00:33:56;;;;;;;;;21.50;15.50;;;;;9.82;61.37;101822.47;5055220;28;45581;-75
2022/04/30 00:36:22;;;;;;;;;26.75;19.25;;;;;9.82;61.89;101829.50;5055238;28;45429;-78
2022/04/30 00:38:47;;;;;;;;;25.00;20.00;;;;;9.78;61.99;101832.16;5076072;27;45410;-78
2022/04/30 00:41:14;;;;;;;;;21.75;17.75;;;;;9.76;62.06;101833.91;5057890;27;45474;-78
2022/04/30 00:43:48;;;;;;;;;25.00;17.75;;;;;9.71;62.96;101826.84;5055774;28;45411;-77
2022/04/30 00:46:14;;;;;;;;;27.75;22.00;;;;;9.72;63.07;101829.50;5056289;28;45333;-78
2022/04/30 00:48:41;;;;;;;;;30.50;17.75;;;;;9.67;63.52;101832.97;5060819;28;46343;-79
2022/04/30 00:51:12;;;;;;;;;13.50;9.50;;;;;9.60;63.73;101830.31;5060577;28;45462;-78
2022/04/30 00:53:39;;;;;;;;;21.75;20.25;;;;;9.52;64.81;101828.50;5074888;27;45548;-78
2022/04/30 00:56:13;;;;;;;;;21.00;15.75;;;;;9.46;65.17;101828.50;5055609;28;45421;-77
2022/04/30 00:58:45;;;;;;;;;26.25;22.50;;;;;9.31;65.70;101824.91;5055931;28;46594;-78
2022/04/30 01:01:11;;;;;;;;;30.75;23.50;;;;;9.28;65.31;101831.91;5055667;28;45462;-78
2022/04/30 01:03:37;;;;;;;;;27.50;21.25;;;;;9.26;65.88;101826.63;5056068;28;45327;-78
2022/04/30 01:06:04;;;;;;;;;18.50;18.50;;;;;9.16;66.29;101820.44;5068901;28;45562;-79
2022/04/30 01:08:30;;;;;;;;;24.75;20.50;;;;;9.13;66.79;101820.41;5064377;27;45455;-77
2022/04/30 01:11:00;;;;;;;;;10.75;10.00;;;;;9.12;66.07;101820.41;5067551;28;45429;-77
2022/04/30 01:13:28;;;;;;;;;15.25;13.00;;;;;9.13;66.37;101816.91;5076060;27;45445;-78
2022/04/30 01:15:58;;;;;;;;;21.00;13.50;;;;;9.12;66.84;101823.91;5075948;27;45591;-79
2022/04/30 01:18:29;;;;;;;;;15.50;14.00;;;;;9.11;66.76;101816.00;5076874;27;45538;-77
2022/04/30 01:20:59;;;;;;;;;22.50;17.00;;;;;9.02;67.23;101823.00;5060553;28;45399;-78
2022/04/30 01:23:26;;;;;;;;;24.75;21.25;;;;;8.95;67.87;101800.09;5055270;28;45521;-78
2022/04/30 01:25:53;;;;;;;;;29.75;20.00;;;;;8.86;68.08;101793.00;5054057;28;45529;-75
2022/04/30 01:28:20;;;;;;;;;32.50;22.25;;;;;8.88;68.22;101800.91;5054046;28;45481;-76
2022/04/30 01:30:46;;;;;;;;;27.75;20.00;;;;;8.91;68.56;101808.84;5065391;28;45713;-75
2022/04/30 01:38:40;;;;;;;;;24.25;18.75;;;;;8.96;68.61;101795.69;5058927;28;45355;-76
2022/04/30 01:41:05;;;;;;;;;19.25;16.00;;;;;8.91;68.44;101790.38;5053749;28;45492;-75
2022/04/30 01:43:33;;;;;;;;;17.75;14.25;;;;;8.93;67.67;101801.84;5069262;28;45363;-75
2022/04/30 01:46:00;;;;;;;;;20.25;19.50;;;;;8.95;67.54;101796.56;5074300;28;45647;-73
2022/04/30 01:48:26;;;;;;;;;24.25;21.50;;;;;8.99;68.07;101795.75;5074486;27;45516;-75
2022/04/30 01:50:52;;;;;;;;;21.25;20.00;;;;;8.99;67.99;101783.41;5075121;28;45436;-74
2022/04/30 01:53:18;;;;;;;;;25.00;20.00;;;;;9.05;67.56;101793.13;5071875;28;45398;-75
2022/04/30 01:55:44;;;;;;;;;32.75;31.25;;;;;9.06;67.23;101793.13;5073701;27;45658;-75
2022/04/30 01:58:09;;;;;;;;;22.00;18.00;;;;;9.06;66.96;101786.97;5074275;27;46206;-75
2022/04/30 02:00:35;;;;;;;;;18.00;13.00;;;;;9.05;67.76;101780.81;5085034;27;45610;-74
2022/04/30 02:03:06;;;;;;;;;30.50;28.25;;;;;9.03;68.15;101785.22;5072866;28;45353;-74
2022/04/30 02:05:32;;;;;;;;;23.00;15.25;;;;;8.99;67.88;101775.50;5072998;28;45534;-75
2022/04/30 02:08:05;;;;;;;;;19.25;14.50;;;;;9.02;67.66;101785.19;5060191;28;45422;-75
2022/04/30 02:10:31;;;;;;;;;12.00;9.00;;;;;9.01;67.92;101784.31;5053202;28;45390;-74
2022/04/30 02:12:58;;;;;;;;;18.00;15.25;;;;;9.02;67.81;101786.06;5054524;28;45401;-78
2022/04/30 02:15:26;;;;;;;;;20.25;18.00;;;;;9.03;68.42;101777.31;5053506;28;45454;-80
2022/04/30 02:17:53;;;;;;;;;26.00;21.25;;;;;9.02;68.46;101770.25;5054176;28;46594;-78
2022/04/30 02:20:27;;;;;;;;;19.00;10.50;;;;;9.01;67.97;101767.59;5074965;28;45608;-78
2022/04/30 02:22:55;;;;;;;;;18.25;18.25;;;;;9.01;68.05;101781.66;5071118;28;45486;-78
2022/04/30 02:25:21;;;;;;;;;21.25;17.50;;;;;9.00;68.49;101781.66;5076891;27;45460;-80
2022/04/30 02:27:53;;;;;;;;;25.00;18.25;;;;;8.99;67.61;101774.63;5078210;27;46310;-78
2022/04/30 02:30:21;;;;;;;;;18.25;14.50;;;;;8.93;67.83;101764.94;5079446;27;45311;-77
2022/04/30 02:32:52;;;;;;;;;22.75;16.50;;;;;8.89;68.54;101776.31;5076012;27;45391;-79
2022/04/30 02:35:23;;;;;;;;;23.50;15.50;;;;;8.86;69.40;101773.66;5059634;28;45355;-79
2022/04/30 02:37:52;;;;;;;;;23.50;14.00;;;;;8.82;68.84;101774.50;5059528;28;45437;-76
2022/04/30 02:40:19;;;;;;;;;22.75;18.50;;;;;8.76;69.11;101771.84;5093388;27;45416;-77
2022/04/30 02:42:45;;;;;;;;;22.75;20.25;;;;;8.81;69.49;101776.28;5074682;27;45496;-78
2022/04/30 02:45:12;;;;;;;;;27.50;19.00;;;;;8.77;69.32;101778.88;5070968;28;45533;-77
2022/04/30 02:47:38;;;;;;;;;23.00;18.75;;;;;8.76;69.43;101775.38;5078061;27;46510;-78
2022/04/30 02:50:08;;;;;;;;;21.75;16.50;;;;;8.75;69.93;101772.72;5080231;27;45387;-78
2022/04/30 02:52:35;;;;;;;;;26.25;21.50;;;;;8.71;69.73;101767.44;5079311;27;45409;-78
2022/04/30 02:55:00;;;;;;;;;4.25;0.75;;;;;8.70;69.98;101763.03;5060738;27;45328;-79
2022/04/30 02:57:37;;;;;;;;;21.00;19.25;;;;;8.71;69.71;101770.06;5057437;28;46135;-78
2022/04/30 03:00:06;;;;;;;;;23.75;21.75;;;;;8.71;69.88;101772.72;5058228;28;45418;-77
2022/04/30 03:02:32;;;;;;;;;17.50;15.75;;;;;8.69;69.32;101760.38;5060038;27;45372;-78
2022/04/30 03:04:58;;;;;;;;;15.00;15.00;;;;;8.68;69.46;101770.06;5058296;28;45312;-79
2022/04/30 03:07:24;;;;;;;;;20.25;16.50;;;;;8.67;69.96;101764.75;5058195;28;45410;-78
2022/04/30 03:09:50;;;;;;;;;24.75;17.00;;;;;8.68;69.71;101764.78;5065448;28;45387;-79
2022/04/30 03:12:16;;;;;;;;;23.50;18.00;;;;;8.62;69.79;101763.84;5073243;27;45433;-78
2022/04/30 03:14:42;;;;;;;;;16.00;16.00;;;;;8.64;69.91;101763.00;5077641;28;45538;-78
2022/04/30 03:22:37;;;;;;;;;18.00;17.00;;;;;8.59;69.90;101764.69;5072139;28;45441;-78
2022/04/30 03:25:03;;;;;;;;;16.75;14.75;;;;;8.57;69.73;101763.81;5067703;28;45366;-77
2022/04/30 03:27:28;;;;;;;;;21.00;15.25;;;;;8.51;70.38;101756.72;5077361;27;45437;-79
2022/04/30 03:29:53;;;;;;;;;20.25;16.00;;;;;8.52;69.82;101761.16;5077115;27;45468;-77
2022/04/30 03:32:24;;;;;;;;;18.50;13.50;;;;;8.51;70.86;101761.13;5058496;27;45390;-78
2022/04/30 03:34:50;;;;;;;;;23.50;15.25;;;;;8.47;70.39;101754.06;5071483;28;45505;-78
2022/04/30 03:37:15;;;;;;;;;20.50;16.00;;;;;8.52;69.59;101760.28;5075834;28;45479;-78
2022/04/30 03:39:40;;;;;;;;;22.75;17.00;;;;;8.49;70.69;101753.22;5076714;27;45464;-77
2022/04/30 03:42:06;;;;;;;;;17.00;16.25;;;;;8.52;70.65;101752.38;5060742;27;45331;-78
2022/04/30 03:44:32;;;;;;;;;18.25;16.50;;;;;8.48;70.24;101751.44;5076721;28;45445;-77
2022/04/30 03:46:57;;;;;;;;;25.00;20.50;;;;;8.51;71.15;101755.88;5077062;27;45541;-79
2022/04/30 03:49:23;;;;;;;;;19.50;18.50;;;;;8.48;70.51;101750.56;5075489;28;45383;-78
2022/04/30 03:51:49;;;;;;;;;22.25;19.00;;;;;8.49;70.21;101753.22;5067718;27;45421;-77
2022/04/30 03:54:14;;;;;;;;;21.00;18.00;;;;;8.48;70.66;101753.22;5058097;28;45394;-77
2022/04/30 03:56:40;;;;;;;;;25.00;18.25;;;;;8.45;70.53;101750.56;5056852;28;45492;-77
2022/04/30 03:59:05;;;;;;;;;18.75;15.75;;;;;8.42;70.74;101747.84;5057246;28;45573;-78
2022/04/30 04:01:32;;;;;;;;;13.25;9.75;;;;;8.44;71.26;101751.41;5068069;28;45263;-78
2022/04/30 04:04:00;;;;;;;;;18.50;14.50;;;;;8.43;70.50;101752.28;5076462;28;45595;-77
2022/04/30 04:06:27;;;;;;;;;17.75;12.50;;;;;8.41;70.57;101739.09;5061745;27;45458;-78
2022/04/30 04:08:53;;;;;;;;;21.75;18.00;;;;;8.40;70.99;101745.22;5056412;28;45461;-79
2022/04/30 04:11:20;;;;;;;;;18.75;13.50;;;;;8.40;70.83;101746.97;5056096;28;45373;-78
2022/04/30 04:19:13;;;;;;;;;20.75;15.00;;;;;8.34;71.33;101753.94;5055778;28;45456;-78
2022/04/30 04:21:39;;;;;;;;;18.50;13.00;;;;;8.37;71.54;101758.38;5063584;28;45497;-79
2022/04/30 04:26:48;;;;;;;;;27.50;23.50;;;;;8.38;71.16;101753.97;5063697;28;45705;-78
2022/04/30 04:29:16;;;;;;;;;25.00;15.00;;;;;8.38;71.32;101761.88;5057049;28;45417;-77
2022/04/30 04:31:44;;;;;;;;;21.75;18.75;;;;;8.35;71.04;101766.25;5059323;28;45319;-79
2022/04/30 04:34:10;;;;;;;;;30.00;18.25;;;;;8.27;72.01;101756.53;5058004;28;45447;-78
2022/04/30 04:36:36;;;;;;;;;28.00;23.50;;;;;8.29;72.37;101766.22;5057564;28;45408;-78
2022/04/30 04:39:08;;;;;;;;;12.50;7.00;;;;;8.31;72.10;101764.47;5057961;28;45418;-79
2022/04/30 04:41:33;;;;;;;;;15.00;14.00;;;;;8.31;71.72;101760.94;5055852;28;45307;-79
2022/04/30 04:43:59;;;;;;;;;13.25;11.25;;;;;8.33;72.31;101762.72;5054520;28;45455;-78
2022/04/30 04:46:24;;;;;;;;;25.75;21.00;;;;;8.35;72.09;101768.00;5056036;28;45355;-79
2022/04/30 04:48:49;;;;;;;;;30.50;21.75;;;;;8.38;71.59;101770.69;5055958;28;45556;-78
2022/04/30 04:51:15;;;;;;;;;19.00;17.75;;;;;8.39;71.72;101771.56;5059941;28;45347;-78
2022/04/30 04:53:40;;;;;;;;;28.00;22.00;;;;;8.40;72.10;101773.31;5080229;27;45257;-79
2022/04/30 04:56:06;;;;;;;;;23.75;21.00;;;;;8.44;71.55;101773.41;5069824;27;46152;-78
2022/04/30 04:58:31;;;;;;;;;20.00;15.50;;;;;8.51;71.83;101784.84;5057447;28;45422;-78
2022/04/30 05:00:57;;;;;;;;;29.00;25.50;;;;;8.56;71.82;101790.16;5055719;28;45433;-77
2022/04/30 05:03:22;;;;;;;;;24.00;19.50;;;;;8.53;71.35;101785.72;5055570;28;45531;-79
2022/04/30 05:05:48;;;;;;;;;24.00;17.50;;;;;8.54;71.41;101795.41;5053568;28;46193;-77
2022/04/30 05:08:13;;;;;;;;;20.75;19.00;;;;;8.56;72.04;101791.03;5055219;28;45515;-79
2022/04/30 05:10:38;;;;;;;;;20.00;18.75;;;;;8.59;71.85;101785.78;5054345;28;45412;-78
2022/04/30 05:13:04;;;;;;;;;30.50;22.50;;;;;8.65;71.76;101785.81;5060261;28;45434;-78
2022/04/30 05:15:29;;;;;;;;;31.75;26.75;;;;;8.71;71.75;101790.25;5075639;28;45984;-78
2022/04/30 05:17:55;;;;;;;;;33.00;22.25;;;;;8.78;70.99;101797.34;5073913;27;45393;-78
2022/04/30 05:20:21;;;;;;;;;21.75;20.75;;;;;8.81;70.79;101799.13;5072401;28;45478;-79
2022/04/30 05:22:46;;;;;;;;;29.75;18.50;;;;;8.83;70.76;101790.34;5076712;28;45367;-79
2022/04/30 05:25:13;;;;;;;;;27.75;21.50;;;;;8.91;71.08;101800.94;5076570;27;46113;-79
2022/04/30 05:27:38;;;;;;;;;38.50;29.00;;;;;9.00;70.84;101798.38;5057929;27;45295;-78
2022/04/30 05:30:04;;;;;;;;;23.50;21.00;;;;;8.97;70.42;101797.47;5058161;28;45365;-78
2022/04/30 05:32:30;;;;;;;;;27.50;25.00;;;;;9.02;70.71;101796.63;5055487;28;45563;-79
2022/04/30 05:34:55;;;;;;;;;34.25;27.50;;;;;9.04;70.13;101802.78;5055959;28;45917;-79
2022/04/30 05:37:20;;;;;;;;;26.00;24.50;;;;;9.02;70.16;101807.19;5055527;28;45406;-78
2022/04/30 05:39:46;;;;;;;;;20.00;18.50;;;;;8.99;70.41;101809.78;5055134;28;45433;-79
2022/04/30 05:42:11;;;;;;;;;24.25;20.00;;;;;8.99;70.56;101814.19;5056053;28;45517;-80
2022/04/30 05:44:36;;;;;;;;;27.00;20.50;;;;;9.04;69.54;101813.31;5056111;28;45393;-79
2022/04/30 05:47:02;;;;;;;;;27.75;20.75;;;;;9.08;69.72;101822.16;5055401;28;45508;-80
2022/04/30 05:49:27;;;;;;;;;27.75;20.25;;;;;9.19;69.29;101817.81;5069614;28;45414;-79
2022/04/30 05:51:53;;;;;;;;;31.50;28.00;;;;;9.29;69.20;101818.72;5054828;28;45426;-79
2022/04/30 05:54:19;;;;;;;;;33.25;26.00;;;;;9.41;68.92;101813.53;5056984;28;45655;-78
2022/04/30 05:56:57;;;;;;;;;24.50;22.50;;;;;9.71;67.41;101816.28;5061829;28;45450;-87
2022/04/30 05:59:22;;;;;;;;;27.75;20.00;;;;;10.02;66.64;101814.63;5074965;28;45303;-76
2022/04/30 06:01:48;;;;;;;;;30.50;24.75;;;;;10.38;65.90;101825.25;5079253;27;45536;-79
2022/04/30 06:04:13;;;;;;;;;27.75;23.50;;;;;10.69;64.63;101818.22;5079106;27;45901;-78
2022/04/30 06:06:38;;;;;;;;;20.50;18.00;;;;;10.90;63.45;101816.41;5058386;28;46002;-78
2022/04/30 06:09:04;;;;;;;;;28.50;23.75;;;;;11.33;62.40;101817.19;5069513;28;45879;-79
2022/04/30 06:11:29;;;;;;;;;31.25;26.75;;;;;11.76;60.67;101818.75;5077391;28;45385;-79
2022/04/30 06:13:55;;;;;;;;;24.00;22.50;;;;;12.27;58.88;101813.19;5079549;27;45449;-80
2022/04/30 06:16:20;;;;;;;;;37.00;29.75;;;;;12.65;57.48;101824.34;5078061;28;45435;-78
2022/04/30 06:18:46;;;;;;;;;29.75;24.75;;;;;13.04;56.03;101827.53;5062811;28;45386;-81
2022/04/30 06:21:11;;;;;;;;;32.25;24.75;;;;;13.11;55.35;101822.13;5064950;27;45544;-79
2022/04/30 06:23:36;;;;;;;;;12.50;12.50;;;;;13.42;55.08;101828.91;5060652;28;46297;-80
2022/04/30 06:26:02;;;;;;;;;23.00;22.00;;;;;13.89;53.36;101823.88;5060229;28;45556;-79
2022/04/30 06:28:27;;;;;;;;;38.50;31.00;;;;;14.17;52.80;101827.03;5063563;28;45600;-81
2022/04/30 06:30:52;;;;;;;;;15.25;14.00;;;;;14.88;51.71;101823.22;5080536;27;45504;-81
2022/04/30 06:33:18;;;;;;;;;26.00;24.25;;;;;15.26;49.59;101822.47;5080871;27;45529;-81
2022/04/30 06:35:44;;;;;;;;;18.75;5.75;;;;;15.56;49.31;101814.78;5078128;27;45475;-79
2022/04/30 06:38:11;;;;;;;;;13.25;10.75;;;;;15.90;48.05;101816.72;5078060;28;45424;-79
2022/04/30 06:40:37;;;;;;;;;26.50;21.75;;;;;16.09;47.06;101827.81;5070974;27;45351;-79
2022/04/30 06:43:02;;;;;;;;;25.00;22.25;;;;;16.12;46.56;101832.22;5056968;28;46020;-79
2022/04/30 06:45:28;;;;;;;;;25.75;22.25;;;;;16.06;46.94;101830.56;5057799;28;45400;-79
2022/04/30 06:47:54;;;;;;;;;22.00;19.25;;;;;16.20;46.71;101829.38;5057509;28;45410;-75
2022/04/30 06:50:20;;;;;;;;;23.50;21.00;;;;;16.30;46.30;101825.59;5056173;28;45358;-76
2022/04/30 06:58:12;;;;;;;;;27.25;22.25;;;;;15.83;46.78;101838.22;5078647;28;45331;-75
2022/04/30 07:03:23;;;;;;;;;25.25;16.50;;;;;14.89;48.62;101836.50;5057310;28;46168;-75
2022/04/30 07:05:52;;;;;;;;;29.00;24.00;;;;;14.45;49.25;101839.88;5055891;28;45461;-73
2022/04/30 07:08:18;;;;;;;;;28.00;21.00;;;;;14.05;50.03;101852.00;5070088;27;45445;-76
2022/04/30 07:10:44;;;;;;;;;25.50;16.50;;;;;13.93;50.33;101850.38;5066430;28;45466;-75
2022/04/30 07:13:09;;;;;;;;;16.50;13.25;;;;;14.03;50.14;101852.03;5085105;27;46192;-76
2022/04/30 07:15:34;;;;;;;;;27.50;24.00;;;;;13.95;50.59;101856.56;5086350;27;45352;-75
2022/04/30 07:18:00;;;;;;;;;27.25;20.00;;;;;14.03;49.93;101846.69;5056277;27;45521;-76
2022/04/30 07:20:25;;;;;;;;;29.00;21.75;;;;;14.30;49.73;101852.53;5058242;27;45410;-76
2022/04/30 07:22:51;;;;;;;;;22.00;17.00;;;;;14.52;49.20;101845.06;5064096;28;46149;-77
2022/04/30 07:25:17;;;;;;;;;25.25;23.50;;;;;15.36;48.27;101849.78;5070752;27;45409;-76
2022/04/30 07:27:42;;;;;;;;;18.25;16.50;;;;;16.39;46.23;101846.69;5077358;27;45433;-76
2022/04/30 07:30:07;;;;;;;;;22.50;19.50;;;;;17.27;43.67;101848.94;5059793;27;45538;-77
2022/04/30 07:32:33;;;;;;;;;17.75;14.50;;;;;17.91;42.44;101852.41;5056453;28;45488;-76
2022/04/30 07:34:58;;;;;;;;;20.00;19.75;;;;;18.35;40.65;101848.38;5056342;28;45450;-76
2022/04/30 07:37:23;;;;;;;;;18.50;14.50;;;;;18.77;40.04;101848.75;5070492;27;45557;-76
2022/04/30 07:39:49;;;;;;;;;18.00;17.00;;;;;19.15;38.85;101845.69;5083222;27;45664;-78
2022/04/30 07:42:14;;;;;;;;;27.75;18.50;;;;;19.39;38.57;101843.03;5079230;27;46656;-77
2022/04/30 07:44:39;;;;;;;;;19.50;17.00;;;;;19.58;38.09;101857.50;5091546;27;45469;-77
2022/04/30 07:47:05;;;;;;;;;18.50;18.25;;;;;19.50;37.46;101839.03;5056575;27;45780;-78
2022/04/30 07:49:31;;;;;;;;;22.75;18.25;;;;;19.55;37.14;101849.56;5056158;28;45428;-76
2022/04/30 07:51:56;;;;;;;;;22.50;18.00;;;;;19.69;37.25;101851.72;5061859;28;46005;-76
2022/04/30 07:54:25;;;;;;;;;33.00;25.25;;;;;19.91;36.98;101848.28;5060682;27;45454;-73
2022/04/30 07:56:56;;;;;;;;;16.75;8.00;;;;;19.90;36.81;101838.47;5056734;28;45504;-75
2022/04/30 07:59:23;;;;;;;;;23.75;17.00;;;;;19.42;37.38;101849.19;5056490;28;45560;-75
2022/04/30 08:01:54;;;;;;;;;27.00;25.50;;;;;19.16;37.69;101863.50;5055147;28;45565;-75
2022/04/30 08:04:20;;;;;;;;;24.50;22.00;;;;;19.45;38.24;101848.16;5087025;27;45315;-76
2022/04/30 08:06:45;;;;;;;;;19.75;17.75;;;;;19.78;37.04;101856.78;5078614;27;45438;-74
2022/04/30 08:09:11;;;;;;;;;33.75;22.00;;;;;19.85;36.96;101846.69;5073418;27;45504;-75
2022/04/30 08:11:36;;;;;;;;;24.25;17.25;;;;;19.86;36.60;101849.31;5073876;27;46482;-75
2022/04/30 08:14:02;;;;;;;;;21.00;16.50;;;;;20.01;36.85;101850.53;5074019;27;45534;-74
2022/04/30 08:16:28;;;;;;;;;24.00;18.25;;;;;20.72;35.91;101853.00;5055462;28;45567;-74
2022/04/30 08:18:55;;;;;;;;;22.50;18.00;;;;;21.03;35.13;101845.44;5055249;28;45480;-76
2022/04/30 08:21:20;;;;;;;;;21.50;15.25;;;;;21.10;34.59;101849.63;5054831;28;46026;-74
2022/04/30 08:23:45;;;;;;;;;22.50;15.75;;;;;21.22;34.91;101850.88;5062312;28;45463;-74
2022/04/30 08:26:11;;;;;;;;;22.00;18.50;;;;;21.40;34.37;101850.06;5075704;27;45345;-74
2022/04/30 08:28:36;;;;;;;;;25.75;22.00;;;;;21.55;33.71;101842.28;5057746;27;45662;-75
2022/04/30 08:31:01;;;;;;;;;21.25;18.00;;;;;21.67;33.40;101839.00;5074183;27;45481;-75
2022/04/30 08:33:27;;;;;;;;;33.75;21.00;;;;;21.97;33.36;101847.44;5074550;27;45425;-73
2022/04/30 08:35:53;;;;;;;;;20.75;19.00;;;;;22.13;32.52;101841.31;5074057;27;45927;-75
2022/04/30 08:38:19;;;;;;;;;14.75;14.50;;;;;22.51;31.77;101834.03;5074418;27;45440;-74
2022/04/30 08:40:44;;;;;;;;;15.25;11.50;;;;;22.53;32.00;101839.34;5060878;27;45433;-74
2022/04/30 08:43:13;;;;;;;;;20.00;17.50;;;;;22.48;32.17;101836.88;5054333;28;45348;-75
2022/04/30 08:45:40;;;;;;;;;20.25;16.25;;;;;22.79;32.06;101829.97;5054217;28;45468;-74
2022/04/30 08:48:13;;;;;;;;;20.50;16.25;;;;;23.08;31.61;101835.66;5055240;28;45485;-75
2022/04/30 08:50:47;;;;;;;;;17.00;16.00;;;;;23.03;31.00;101833.19;5055280;28;45915;-78
2022/04/30 08:53:14;;;;;;;;;20.00;19.00;;;;;22.65;31.05;101817.19;5055968;28;45453;-80
2022/04/30 08:55:39;;;;;;;;;18.00;16.00;;;;;22.79;31.25;101831.75;5065872;28;45504;-79
2022/04/30 08:58:05;;;;;;;;;17.75;14.00;;;;;23.17;31.13;101820.81;5079346;28;45335;-80
2022/04/30 09:00:37;;;;;;;;;19.00;15.50;;;;;23.39;31.18;101823.22;5076992;28;45986;-80
2022/04/30 09:03:02;;;;;;;;;22.75;21.00;;;;;23.55;30.50;101818.75;5074801;27;45564;-80
2022/04/30 09:05:34;;;;;;;;;22.25;19.00;;;;;23.57;30.49;101816.81;5075666;27;45411;-81
2022/04/30 09:08:01;;;;;;;;;17.75;15.00;;;;;23.53;30.30;101809.84;5075559;28;45272;-79
2022/04/30 09:10:29;;;;;;;;;22.50;19.75;;;;;23.50;30.44;101804.63;5074197;28;45956;-80
2022/04/30 09:13:07;;;;;;;;;27.00;21.75;;;;;23.13;30.34;101813.88;5072882;28;45831;-80
2022/04/30 09:15:34;;;;;;;;;20.50;18.75;;;;;23.02;30.71;101811.72;5055314;28;45377;-80
2022/04/30 09:18:00;;;;;;;;;28.00;21.75;;;;;22.84;30.77;101809.00;5054093;28;45547;-80
2022/04/30 09:20:26;;;;;;;;;11.00;9.25;;;;;23.15;31.25;101814.63;5057910;28;45432;-80
2022/04/30 09:22:52;;;;;;;;;13.00;10.00;;;;;23.19;30.65;101817.09;5055708;28;45390;-80
2022/04/30 09:25:18;;;;;;;;;13.50;11.75;;;;;23.38;31.40;101805.28;5061025;28;45331;-80
2022/04/30 09:27:49;;;;;;;;;7.00;7.00;;;;;23.99;30.78;101801.03;5078870;27;45412;-80
2022/04/30 09:30:26;;;;;;;;;23.00;18.25;;;;;23.94;29.76;101804.00;5076437;27;45552;-80
2022/04/30 09:33:03;;;;;;;;;17.00;14.00;;;;;23.74;30.19;101793.41;5072940;28;45461;-80
2022/04/30 09:38:14;;;;;;;;;16.75;14.25;;;;;23.60;29.07;101796.91;5060205;28;45413;-80
2022/04/30 09:40:40;;;;;;;;;14.50;12.25;;;;;23.75;29.60;101800.56;5064010;28;45504;-80
2022/04/30 09:43:15;;;;;;;;;12.00;11.00;;;;;23.82;29.16;101804.66;5063192;28;45398;-80
2022/04/30 09:45:40;;;;;;;;;8.25;7.25;;;;;24.00;28.08;101804.59;5060009;28;45424;-81
2022/04/30 09:53:56;;;;;;;;;11.25;8.75;;;;;23.92;27.41;101803.19;5061936;27;45417;-79
2022/04/30 09:53:56;;;;;;;;;15.75;14.00;;;;;23.32;27.33;101798.44;5072177;28;45650;-80
2022/04/30 09:56:44;;;;;;;;;84.75;70.00;;;;;23.53;27.48;101804.44;5068491;27;45376;-80
2022/04/30 09:59:14;;;;;;;;;14.00;11.75;;;;;23.26;27.54;101808.66;5058279;28;45407;-80
2022/04/30 10:01:42;;;;;;;;;17.75;11.00;;;;;23.11;28.42;101808.56;5064242;27;46413;-80
2022/04/30 10:04:10;;;;;;;;;20.50;16.25;;;;;23.33;28.22;101802.00;5061971;27;45477;-81
2022/04/30 10:06:43;;;;;;;;;7.75;6.50;;;;;23.67;28.09;101790.22;5054992;28;45347;-80
2022/04/30 10:09:15;;;;;;;;;11.75;10.75;;;;;23.58;26.79;101791.59;5061969;28;45630;-80
2022/04/30 10:11:55;;;;;;;;;12.75;11.75;;;;;23.99;25.47;101800.16;5057398;28;48017;-80
2022/04/30 10:14:47;;;;;;;;;10.00;7.00;;;;;24.12;25.07;101787.69;5065593;28;45373;-80
2022/04/30 10:17:16;;;;;;;;;7.25;3.75;;;;;24.36;25.36;101792.63;5062611;28;45409;-79
2022/04/30 10:21:09;;;;;;;;;19.50;14.75;;;;;24.33;25.82;101796.38;5057794;28;45688;-80
2022/04/30 10:23:05;;;;;;;;;19.75;17.25;;;;;24.43;25.93;101793.97;5066468;27;45585;-81
2022/04/30 10:25:35;;;;;;;;;7.50;6.75;;;;;24.27;26.45;101797.59;5072118;27;45376;-80
2022/04/30 10:28:21;;;;;;;;;15.75;10.00;;;;;24.22;26.70;101786.19;5072865;28;45416;-80
2022/04/30 10:31:13;;;;;;;;;16.00;12.25;;;;;23.82;26.66;101788.44;5064575;28;45464;-80
2022/04/30 10:33:49;;;;;;;;;15.75;11.75;;;;;23.84;25.90;101780.25;5059428;27;46377;-80
2022/04/30 10:36:15;;;;;;;;;37.25;29.75;;;;;23.85;26.38;101785.59;5072401;28;45610;-81
2022/04/30 10:38:42;;;;;;;;;87.33;71.33;;;;;24.13;25.94;101779.50;5058785;27;45469;-81
2022/04/30 10:41:10;;;;;;;;;2.75;2.75;;;;;24.26;25.92;101770.66;5072202;27;45317;-74
2022/04/30 10:44:32;;;;;;;;;14.00;9.50;;;;;24.37;25.37;101772.72;5072395;27;46134;-81
2022/04/30 10:46:52;;;;;;;;;7.75;7.00;;;;;24.31;24.85;101774.00;5053723;28;45486;-76
2022/04/30 10:49:18;;;;;;;;;14.75;14.75;;;;;24.02;24.87;101772.97;5050173;28;45533;-76
2022/04/30 10:51:44;;;;;;;;;14.75;13.00;;;;;23.96;25.42;101763.44;5047436;28;45586;-75
2022/04/30 10:54:18;;;;;;;;;13.75;8.00;;;;;23.78;25.62;101765.31;5050739;28;46197;-74
2022/04/30 10:56:45;;;;;;;;;9.00;9.00;;;;;23.77;26.00;101774.34;5060937;28;45509;-75
2022/04/30 10:59:20;;;;;;;;;11.00;10.00;;;;;23.92;26.35;101753.75;5064380;28;45412;-75
2022/04/30 11:01:49;;;;;;;;;11.75;7.75;;;;;23.78;25.88;101749.13;5048947;28;45600;-76
2022/04/30 11:04:19;;;;;;;;;10.00;10.00;;;;;23.70;26.39;101752.25;5040554;28;48174;-81
2022/04/30 11:06:47;;;;;;;;;13.75;8.50;;;;;23.42;26.10;101752.94;5046116;28;45479;-81
2022/04/30 11:09:13;;;;;;;;;13.50;11.00;;;;;23.26;26.63;101757.44;5045045;28;45615;-82
2022/04/30 11:11:38;;;;;;;;;17.50;14.25;;;;;23.23;26.71;101748.56;5044723;28;45484;-76
2022/04/30 11:14:05;;;;;;;;;11.50;8.25;;;;;23.22;26.83;101745.97;5044633;28;45971;-76
2022/04/30 11:16:41;;;;;;;;;20.50;19.50;;;;;23.07;26.04;101742.22;5044940;28;45538;-77
2022/04/30 11:19:10;;;;;;;;;10.00;8.75;;;;;23.31;26.03;101740.06;5044655;28;45574;-79
2022/04/30 11:21:38;;;;;;;;;10.00;10.00;;;;;23.22;25.40;101738.72;5045377;28;45619;-80
2022/04/30 11:24:10;;;;;;;;;12.50;11.50;;;;;23.38;26.04;101732.47;5057081;27;46202;-80
2022/04/30 11:26:40;;;;;;;;;13.50;12.00;;;;;23.07;25.99;101731.44;5077093;28;45781;-80
2022/04/30 11:29:16;;;;;;;;;10.75;10.50;;;;;22.91;26.29;101730.53;5067978;28;45502;-81
2022/04/30 11:31:43;;;;;;;;;11.00;11.00;;;;;23.16;26.32;101728.28;5067382;28;45495;-81
2022/04/30 11:34:15;;;;;;;;;1.75;1.25;;;;;23.27;26.46;101716.03;5068613;28;45471;-82
2022/04/30 11:36:46;;;;;;;;;12.00;10.25;;;;;23.20;25.71;101729.88;5067281;28;45457;-80
2022/04/30 11:39:13;;;;;;;;;18.25;18.25;;;;;23.09;25.26;101718.78;5065383;28;45524;-80
2022/04/30 11:41:43;;;;;;;;;19.00;17.25;;;;;22.99;26.21;101728.31;5060106;27;45524;-79
2022/04/30 11:44:24;;;;;;;;;9.75;6.75;;;;;22.95;26.28;101710.56;5061477;27;45700;-81
2022/04/30 11:46:51;;;;;;;;;18.75;17.00;;;;;22.93;26.40;101698.97;5060504;28;45802;-77
2022/04/30 11:49:20;;;;;;;;;4.50;4.50;;;;;23.17;26.32;101721.94;5059470;27;45523;-76
2022/04/30 11:51:46;;;;;;;;;9.25;8.00;;;;;23.29;26.34;101714.13;5079662;27;45476;-77